Impacts METAR Board
IDs:

KGRK - Killeen-Ft Hood Rgnl, TX, US

Updated at: 2300 UTC 18 Oct 2019
Potential Impact None Slight Moderate High
Time 18/11Z 18/12Z 18/13Z 18/14Z 18/15Z 18/16Z 18/17Z 18/18Z 18/19Z 18/20Z 18/21Z 18/22Z 18/23Z
Temp48 47 49 54 59 64 70 77 79 79 79
Dewpt44 43 44 48 49 47 50 48 52 50 50
Altim29.89 29.88 29.88 29.89 29.89 29.88 29.88 29.79 29.75 29.75 29.77
VIS10 10 10 10 10 10 7 7 7 7 7
CIG-- -- -- -- -- -- -- -- -- -- --
CoverCLRCLRCLRCLRCLRCLRCLRCLRCLRCLRCLR
FltCatVFRVFRVFRVFRVFRVFRVFRVFRVFRVFRVFR
WX----------------------
WDir01600160120110150160160170150
WSpd0 4 0 4 6 5 3 6 6 6 6
WGst-- -- -- -- -- -- -- -- -- -- --
Raw hourly METARs
KGRK 181058Z AUTO 00000KT 10SM CLR 09/06 A2989 RMK AO2 SLP119 T00910064
KGRK 181158Z AUTO 16004KT 10SM CLR 09/06 A2988 RMK AO2 SLP116 T00860063 10127 20078 $
KGRK 181258Z AUTO 00000KT 10SM CLR 10/07 A2988 RMK AO2 SLP116 T00970067
KGRK 181358Z AUTO 16004KT 10SM CLR 12/09 A2989 RMK AO2 SLP119 T01230088
KGRK 181458Z AUTO 12006KT 10SM CLR 15/10 A2989 RMK AO2 SLPNO T01480095 53001
KGRK 181558Z AUTO 11005KT 10SM CLR 18/08 A2988 RMK AO2 SLPNO T01770082
KGRK 181658Z COR 15003KT 7SM CLR 21/10 A2988 RMK AO2A SLPNO WND DATA ESTMD ALSTG ESTMD COR 1703


KGRK 181955Z 16006KT 7SM CLR 25/09 A2979 RMK AO2A SLPNO WND DATA ESTMD ALSTG ESTMD
KGRK 182057Z 16006KT 7SM CLR 26/11 A2975 RMK AO2A SLPNO WND DATA ESTMD ALSTG ESTMD
KGRK 182158Z 17006KT 7SM CLR 26/10 A2975 RMK AO2A SLPNO WND DATA ESTMD ALSTG ESTMD
KGRK 182255Z 15006KT 7SM CLR 26/10 A2977 RMK AO2A SLPNO WND DATA ESTMD ALSTG ESTMD